sensor_id;sensor_type;location;lat;lon;timestamp;P1;durP1;ratioP1;P2;durP2;ratioP2
54241;SDS011;40156;51.080;17.082;2023-06-04T00:00:55;6.35;;;2.40;;
54241;SDS011;40156;51.080;17.082;2023-06-04T00:03:43;4.15;;;1.88;;
54241;SDS011;40156;51.080;17.082;2023-06-04T00:06:11;3.83;;;1.67;;
54241;SDS011;40156;51.080;17.082;2023-06-04T00:08:38;3.50;;;1.58;;
54241;SDS011;40156;51.080;17.082;2023-06-04T00:11:06;4.50;;;2.00;;
54241;SDS011;40156;51.080;17.082;2023-06-04T00:13:34;5.03;;;2.17;;
54241;SDS011;40156;51.080;17.082;2023-06-04T00:16:20;4.63;;;2.00;;
54241;SDS011;40156;51.080;17.082;2023-06-04T00:18:48;4.03;;;1.85;;
54241;SDS011;40156;51.080;17.082;2023-06-04T00:21:16;5.65;;;2.00;;
54241;SDS011;40156;51.080;17.082;2023-06-04T00:23:44;5.15;;;2.00;;
54241;SDS011;40156;51.080;17.082;2023-06-04T00:26:11;2.95;;;2.00;;
54241;SDS011;40156;51.080;17.082;2023-06-04T00:28:39;5.35;;;2.20;;
54241;SDS011;40156;51.080;17.082;2023-06-04T00:31:06;3.03;;;1.50;;
54241;SDS011;40156;51.080;17.082;2023-06-04T00:33:35;5.93;;;1.85;;
54241;SDS011;40156;51.080;17.082;2023-06-04T00:36:08;5.88;;;2.00;;
54241;SDS011;40156;51.080;17.082;2023-06-04T00:38:36;6.38;;;2.08;;
54241;SDS011;40156;51.080;17.082;2023-06-04T00:41:03;6.10;;;2.42;;
54241;SDS011;40156;51.080;17.082;2023-06-04T00:43:31;4.38;;;2.00;;
54241;SDS011;40156;51.080;17.082;2023-06-04T00:45:58;3.45;;;1.90;;
54241;SDS011;40156;51.080;17.082;2023-06-04T00:48:26;3.38;;;1.85;;
54241;SDS011;40156;51.080;17.082;2023-06-04T00:50:53;4.28;;;1.70;;
54241;SDS011;40156;51.080;17.082;2023-06-04T00:53:22;4.70;;;2.45;;
54241;SDS011;40156;51.080;17.082;2023-06-04T00:55:50;3.78;;;1.92;;
54241;SDS011;40156;51.080;17.082;2023-06-04T00:58:18;4.05;;;1.80;;
54241;SDS011;40156;51.080;17.082;2023-06-04T01:00:45;4.50;;;2.15;;
54241;SDS011;40156;51.080;17.082;2023-06-04T01:03:13;5.25;;;2.30;;
54241;SDS011;40156;51.080;17.082;2023-06-04T01:05:44;4.97;;;2.00;;
54241;SDS011;40156;51.080;17.082;2023-06-04T01:08:14;6.57;;;1.88;;
54241;SDS011;40156;51.080;17.082;2023-06-04T01:10:51;4.15;;;1.98;;
54241;SDS011;40156;51.080;17.082;2023-06-04T01:13:19;5.15;;;2.20;;
54241;SDS011;40156;51.080;17.082;2023-06-04T01:15:46;7.60;;;2.08;;
54241;SDS011;40156;51.080;17.082;2023-06-04T01:18:15;4.25;;;2.17;;
54241;SDS011;40156;51.080;17.082;2023-06-04T01:20:44;4.78;;;2.03;;
54241;SDS011;40156;51.080;17.082;2023-06-04T01:23:37;4.90;;;2.00;;
54241;SDS011;40156;51.080;17.082;2023-06-04T01:26:06;3.85;;;2.05;;
54241;SDS011;40156;51.080;17.082;2023-06-04T01:28:34;5.40;;;1.95;;
54241;SDS011;40156;51.080;17.082;2023-06-04T01:31:02;4.43;;;1.98;;
54241;SDS011;40156;51.080;17.082;2023-06-04T01:33:30;5.53;;;2.17;;
54241;SDS011;40156;51.080;17.082;2023-06-04T01:35:59;3.60;;;1.67;;
54241;SDS011;40156;51.080;17.082;2023-06-04T01:38:27;4.60;;;1.77;;
54241;SDS011;40156;51.080;17.082;2023-06-04T01:40:55;3.63;;;1.60;;
54241;SDS011;40156;51.080;17.082;2023-06-04T01:43:22;3.78;;;1.80;;
54241;SDS011;40156;51.080;17.082;2023-06-04T01:45:50;2.65;;;1.70;;
54241;SDS011;40156;51.080;17.082;2023-06-04T01:48:18;5.93;;;2.08;;
54241;SDS011;40156;51.080;17.082;2023-06-04T01:50:45;6.57;;;1.77;;
54241;SDS011;40156;51.080;17.082;2023-06-04T01:53:12;4.13;;;2.03;;
54241;SDS011;40156;51.080;17.082;2023-06-04T01:55:40;3.38;;;1.77;;
54241;SDS011;40156;51.080;17.082;2023-06-04T01:58:07;4.57;;;1.92;;
54241;SDS011;40156;51.080;17.082;2023-06-04T02:00:35;6.10;;;1.98;;
54241;SDS011;40156;51.080;17.082;2023-06-04T02:03:02;4.63;;;2.13;;
54241;SDS011;40156;51.080;17.082;2023-06-04T02:05:30;4.28;;;2.45;;
54241;SDS011;40156;51.080;17.082;2023-06-04T02:07:58;4.53;;;2.10;;
54241;SDS011;40156;51.080;17.082;2023-06-04T02:10:25;3.60;;;2.20;;
54241;SDS011;40156;51.080;17.082;2023-06-04T02:12:57;4.28;;;2.40;;
54241;SDS011;40156;51.080;17.082;2023-06-04T02:15:25;3.83;;;1.83;;
54241;SDS011;40156;51.080;17.082;2023-06-04T02:17:54;3.88;;;2.38;;
54241;SDS011;40156;51.080;17.082;2023-06-04T02:20:22;3.75;;;2.10;;
54241;SDS011;40156;51.080;17.082;2023-06-04T02:22:49;6.38;;;2.60;;
54241;SDS011;40156;51.080;17.082;2023-06-04T02:25:17;6.15;;;2.40;;
54241;SDS011;40156;51.080;17.082;2023-06-04T02:27:51;5.45;;;2.33;;
54241;SDS011;40156;51.080;17.082;2023-06-04T02:30:19;4.53;;;2.10;;
54241;SDS011;40156;51.080;17.082;2023-06-04T02:32:47;5.28;;;2.03;;
54241;SDS011;40156;51.080;17.082;2023-06-04T02:35:18;6.68;;;2.50;;
54241;SDS011;40156;51.080;17.082;2023-06-04T02:37:46;5.13;;;2.05;;
54241;SDS011;40156;51.080;17.082;2023-06-04T02:40:13;5.15;;;2.35;;
54241;SDS011;40156;51.080;17.082;2023-06-04T02:42:41;8.82;;;2.47;;
54241;SDS011;40156;51.080;17.082;2023-06-04T02:45:09;4.18;;;2.25;;
54241;SDS011;40156;51.080;17.082;2023-06-04T02:47:37;4.13;;;2.10;;
54241;SDS011;40156;51.080;17.082;2023-06-04T02:50:05;3.53;;;2.10;;
54241;SDS011;40156;51.080;17.082;2023-06-04T02:52:33;6.90;;;2.17;;
54241;SDS011;40156;51.080;17.082;2023-06-04T02:55:00;11.52;;;2.40;;
54241;SDS011;40156;51.080;17.082;2023-06-04T02:57:28;5.25;;;2.20;;
54241;SDS011;40156;51.080;17.082;2023-06-04T02:59:56;5.68;;;1.90;;
54241;SDS011;40156;51.080;17.082;2023-06-04T03:02:32;6.85;;;2.60;;
54241;SDS011;40156;51.080;17.082;2023-06-04T03:05:13;4.22;;;2.15;;
54241;SDS011;40156;51.080;17.082;2023-06-04T03:07:42;6.55;;;2.05;;
54241;SDS011;40156;51.080;17.082;2023-06-04T03:10:10;4.28;;;1.95;;
54241;SDS011;40156;51.080;17.082;2023-06-04T03:12:38;6.10;;;2.60;;
54241;SDS011;40156;51.080;17.082;2023-06-04T03:15:06;4.03;;;2.17;;
54241;SDS011;40156;51.080;17.082;2023-06-04T03:17:34;4.28;;;2.22;;
54241;SDS011;40156;51.080;17.082;2023-06-04T03:20:01;4.63;;;2.03;;
54241;SDS011;40156;51.080;17.082;2023-06-04T03:22:29;4.50;;;1.83;;
54241;SDS011;40156;51.080;17.082;2023-06-04T03:24:57;6.50;;;2.08;;
54241;SDS011;40156;51.080;17.082;2023-06-04T03:29:56;5.53;;;2.30;;
54241;SDS011;40156;51.080;17.082;2023-06-04T03:32:30;4.97;;;2.47;;
54241;SDS011;40156;51.080;17.082;2023-06-04T03:34:57;2.30;;;1.90;;
54241;SDS011;40156;51.080;17.082;2023-06-04T03:37:25;9.43;;;2.70;;
54241;SDS011;40156;51.080;17.082;2023-06-04T03:39:53;4.03;;;1.95;;
54241;SDS011;40156;51.080;17.082;2023-06-04T03:42:21;5.57;;;2.38;;
54241;SDS011;40156;51.080;17.082;2023-06-04T03:44:50;3.85;;;1.88;;
54241;SDS011;40156;51.080;17.082;2023-06-04T03:47:22;3.97;;;2.30;;
54241;SDS011;40156;51.080;17.082;2023-06-04T03:49:50;4.07;;;1.92;;
54241;SDS011;40156;51.080;17.082;2023-06-04T03:52:17;4.15;;;2.08;;
54241;SDS011;40156;51.080;17.082;2023-06-04T03:54:45;3.35;;;2.30;;
54241;SDS011;40156;51.080;17.082;2023-06-04T03:57:12;3.03;;;1.75;;
54241;SDS011;40156;51.080;17.082;2023-06-04T03:59:40;4.97;;;1.80;;
54241;SDS011;40156;51.080;17.082;2023-06-04T04:02:10;3.75;;;2.30;;
54241;SDS011;40156;51.080;17.082;2023-06-04T04:04:38;5.38;;;2.28;;
54241;SDS011;40156;51.080;17.082;2023-06-04T04:07:06;4.97;;;2.08;;
54241;SDS011;40156;51.080;17.082;2023-06-04T04:09:33;6.07;;;2.05;;
54241;SDS011;40156;51.080;17.082;2023-06-04T04:12:01;3.58;;;2.42;;
54241;SDS011;40156;51.080;17.082;2023-06-04T04:14:28;4.47;;;1.92;;
54241;SDS011;40156;51.080;17.082;2023-06-04T04:16:56;6.05;;;1.90;;
54241;SDS011;40156;51.080;17.082;2023-06-04T04:19:24;4.97;;;2.25;;
54241;SDS011;40156;51.080;17.082;2023-06-04T04:21:52;3.78;;;1.90;;
54241;SDS011;40156;51.080;17.082;2023-06-04T04:24:23;3.85;;;1.90;;
54241;SDS011;40156;51.080;17.082;2023-06-04T04:26:53;3.05;;;2.00;;
54241;SDS011;40156;51.080;17.082;2023-06-04T04:29:21;4.40;;;2.03;;
54241;SDS011;40156;51.080;17.082;2023-06-04T04:31:49;4.10;;;2.08;;
54241;SDS011;40156;51.080;17.082;2023-06-04T04:34:17;4.13;;;2.25;;
54241;SDS011;40156;51.080;17.082;2023-06-04T04:36:44;3.72;;;2.17;;
54241;SDS011;40156;51.080;17.082;2023-06-04T04:39:12;3.08;;;1.92;;
54241;SDS011;40156;51.080;17.082;2023-06-04T04:41:39;3.75;;;2.03;;
54241;SDS011;40156;51.080;17.082;2023-06-04T04:44:09;3.83;;;2.50;;
54241;SDS011;40156;51.080;17.082;2023-06-04T04:46:36;3.80;;;2.05;;
54241;SDS011;40156;51.080;17.082;2023-06-04T04:49:04;4.57;;;2.13;;
54241;SDS011;40156;51.080;17.082;2023-06-04T04:51:31;3.30;;;2.10;;
54241;SDS011;40156;51.080;17.082;2023-06-04T04:53:59;5.53;;;2.47;;
54241;SDS011;40156;51.080;17.082;2023-06-04T04:56:27;5.40;;;2.30;;
54241;SDS011;40156;51.080;17.082;2023-06-04T04:58:55;3.60;;;1.83;;
54241;SDS011;40156;51.080;17.082;2023-06-04T05:01:22;4.38;;;1.98;;
54241;SDS011;40156;51.080;17.082;2023-06-04T05:03:50;4.07;;;1.80;;
54241;SDS011;40156;51.080;17.082;2023-06-04T05:06:18;4.55;;;2.00;;
54241;SDS011;40156;51.080;17.082;2023-06-04T05:08:47;5.05;;;2.35;;
54241;SDS011;40156;51.080;17.082;2023-06-04T05:11:15;3.78;;;2.40;;
54241;SDS011;40156;51.080;17.082;2023-06-04T05:13:42;3.05;;;1.83;;
54241;SDS011;40156;51.080;17.082;2023-06-04T05:16:12;4.50;;;2.25;;
54241;SDS011;40156;51.080;17.082;2023-06-04T05:18:40;2.92;;;1.90;;
54241;SDS011;40156;51.080;17.082;2023-06-04T05:21:07;3.28;;;2.00;;
54241;SDS011;40156;51.080;17.082;2023-06-04T05:23:35;4.72;;;2.00;;
54241;SDS011;40156;51.080;17.082;2023-06-04T05:26:03;4.35;;;1.90;;
54241;SDS011;40156;51.080;17.082;2023-06-04T05:28:31;5.05;;;2.15;;
54241;SDS011;40156;51.080;17.082;2023-06-04T05:30:58;3.00;;;2.45;;
54241;SDS011;40156;51.080;17.082;2023-06-04T05:33:26;4.68;;;2.13;;
54241;SDS011;40156;51.080;17.082;2023-06-04T05:35:54;7.07;;;2.20;;
54241;SDS011;40156;51.080;17.082;2023-06-04T05:38:22;3.80;;;2.10;;
54241;SDS011;40156;51.080;17.082;2023-06-04T05:40:49;2.63;;;1.88;;
54241;SDS011;40156;51.080;17.082;2023-06-04T05:43:17;4.93;;;2.20;;
54241;SDS011;40156;51.080;17.082;2023-06-04T05:45:45;3.75;;;2.03;;
54241;SDS011;40156;51.080;17.082;2023-06-04T05:48:13;6.55;;;2.13;;
54241;SDS011;40156;51.080;17.082;2023-06-04T05:50:43;7.20;;;1.90;;
54241;SDS011;40156;51.080;17.082;2023-06-04T05:53:10;5.82;;;2.15;;
54241;SDS011;40156;51.080;17.082;2023-06-04T05:55:38;4.68;;;1.80;;
54241;SDS011;40156;51.080;17.082;2023-06-04T05:58:07;6.03;;;2.45;;
54241;SDS011;40156;51.080;17.082;2023-06-04T06:00:35;4.28;;;1.70;;
54241;SDS011;40156;51.080;17.082;2023-06-04T06:03:03;3.03;;;2.08;;
54241;SDS011;40156;51.080;17.082;2023-06-04T06:05:31;3.67;;;1.55;;
54241;SDS011;40156;51.080;17.082;2023-06-04T06:07:58;5.57;;;1.95;;
54241;SDS011;40156;51.080;17.082;2023-06-04T06:10:40;4.35;;;1.60;;
54241;SDS011;40156;51.080;17.082;2023-06-04T06:13:08;5.55;;;2.88;;
54241;SDS011;40156;51.080;17.082;2023-06-04T06:15:35;4.97;;;2.22;;
54241;SDS011;40156;51.080;17.082;2023-06-04T06:18:03;4.00;;;1.80;;
54241;SDS011;40156;51.080;17.082;2023-06-04T06:20:31;4.20;;;1.83;;
54241;SDS011;40156;51.080;17.082;2023-06-04T06:23:05;3.45;;;1.73;;
54241;SDS011;40156;51.080;17.082;2023-06-04T06:25:33;3.22;;;1.70;;
54241;SDS011;40156;51.080;17.082;2023-06-04T06:28:00;3.97;;;1.92;;
54241;SDS011;40156;51.080;17.082;2023-06-04T06:30:28;4.78;;;1.92;;
54241;SDS011;40156;51.080;17.082;2023-06-04T06:32:55;3.50;;;1.80;;
54241;SDS011;40156;51.080;17.082;2023-06-04T06:35:23;4.20;;;2.05;;
54241;SDS011;40156;51.080;17.082;2023-06-04T06:37:50;4.63;;;1.75;;
54241;SDS011;40156;51.080;17.082;2023-06-04T06:40:19;2.90;;;1.80;;
54241;SDS011;40156;51.080;17.082;2023-06-04T06:42:48;3.53;;;1.80;;
54241;SDS011;40156;51.080;17.082;2023-06-04T06:45:17;2.75;;;1.73;;
54241;SDS011;40156;51.080;17.082;2023-06-04T06:47:45;5.65;;;2.00;;
54241;SDS011;40156;51.080;17.082;2023-06-04T06:50:13;3.05;;;1.83;;
54241;SDS011;40156;51.080;17.082;2023-06-04T06:52:43;4.25;;;2.13;;
54241;SDS011;40156;51.080;17.082;2023-06-04T06:55:10;4.70;;;3.45;;
54241;SDS011;40156;51.080;17.082;2023-06-04T06:57:38;2.17;;;1.70;;
54241;SDS011;40156;51.080;17.082;2023-06-04T07:00:06;3.80;;;2.08;;
54241;SDS011;40156;51.080;17.082;2023-06-04T07:02:34;4.07;;;1.75;;
54241;SDS011;40156;51.080;17.082;2023-06-04T07:05:02;4.25;;;1.80;;
54241;SDS011;40156;51.080;17.082;2023-06-04T07:07:31;5.25;;;2.08;;
54241;SDS011;40156;51.080;17.082;2023-06-04T07:10:02;2.58;;;1.70;;
54241;SDS011;40156;51.080;17.082;2023-06-04T07:12:29;2.92;;;1.60;;
54241;SDS011;40156;51.080;17.082;2023-06-04T07:14:57;5.85;;;1.98;;
54241;SDS011;40156;51.080;17.082;2023-06-04T07:17:26;2.25;;;1.70;;
54241;SDS011;40156;51.080;17.082;2023-06-04T07:19:53;2.42;;;1.80;;
54241;SDS011;40156;51.080;17.082;2023-06-04T07:22:21;3.50;;;1.95;;
54241;SDS011;40156;51.080;17.082;2023-06-04T07:24:48;3.92;;;1.73;;
54241;SDS011;40156;51.080;17.082;2023-06-04T07:27:16;3.60;;;2.10;;
54241;SDS011;40156;51.080;17.082;2023-06-04T07:29:44;3.15;;;1.60;;
54241;SDS011;40156;51.080;17.082;2023-06-04T07:32:12;3.85;;;1.77;;
54241;SDS011;40156;51.080;17.082;2023-06-04T07:34:40;2.75;;;1.50;;
54241;SDS011;40156;51.080;17.082;2023-06-04T07:37:07;2.25;;;1.40;;
54241;SDS011;40156;51.080;17.082;2023-06-04T07:39:35;4.30;;;1.70;;
54241;SDS011;40156;51.080;17.082;2023-06-04T07:42:04;3.50;;;1.80;;
54241;SDS011;40156;51.080;17.082;2023-06-04T07:44:31;3.33;;;1.80;;
54241;SDS011;40156;51.080;17.082;2023-06-04T07:46:59;3.55;;;1.70;;
54241;SDS011;40156;51.080;17.082;2023-06-04T07:49:27;3.42;;;1.40;;
54241;SDS011;40156;51.080;17.082;2023-06-04T07:51:57;2.50;;;1.40;;
54241;SDS011;40156;51.080;17.082;2023-06-04T07:54:25;2.80;;;1.40;;
54241;SDS011;40156;51.080;17.082;2023-06-04T07:56:52;4.75;;;1.60;;
54241;SDS011;40156;51.080;17.082;2023-06-04T07:59:23;4.40;;;1.40;;
54241;SDS011;40156;51.080;17.082;2023-06-04T08:02:03;1.58;;;1.27;;
54241;SDS011;40156;51.080;17.082;2023-06-04T08:07:38;2.08;;;1.50;;
54241;SDS011;40156;51.080;17.082;2023-06-04T08:10:06;4.65;;;1.52;;
54241;SDS011;40156;51.080;17.082;2023-06-04T08:12:35;2.40;;;1.40;;
54241;SDS011;40156;51.080;17.082;2023-06-04T08:15:03;3.03;;;1.48;;
54241;SDS011;40156;51.080;17.082;2023-06-04T08:17:37;2.55;;;1.63;;
54241;SDS011;40156;51.080;17.082;2023-06-04T08:20:33;4.00;;;1.20;;
54241;SDS011;40156;51.080;17.082;2023-06-04T08:23:04;6.95;;;2.10;;
54241;SDS011;40156;51.080;17.082;2023-06-04T08:25:32;3.42;;;1.80;;
54241;SDS011;40156;51.080;17.082;2023-06-04T08:28:18;3.30;;;1.60;;
54241;SDS011;40156;51.080;17.082;2023-06-04T08:30:46;2.55;;;1.42;;
54241;SDS011;40156;51.080;17.082;2023-06-04T08:33:20;1.98;;;1.50;;
54241;SDS011;40156;51.080;17.082;2023-06-04T08:35:55;1.77;;;1.30;;
54241;SDS011;40156;51.080;17.082;2023-06-04T08:38:25;2.13;;;1.30;;
54241;SDS011;40156;51.080;17.082;2023-06-04T08:40:55;2.08;;;1.42;;
54241;SDS011;40156;51.080;17.082;2023-06-04T08:43:27;2.42;;;1.40;;
54241;SDS011;40156;51.080;17.082;2023-06-04T08:45:58;2.45;;;1.38;;
54241;SDS011;40156;51.080;17.082;2023-06-04T08:57:03;2.50;;;1.38;;
54241;SDS011;40156;51.080;17.082;2023-06-04T08:59:33;2.67;;;1.20;;
54241;SDS011;40156;51.080;17.082;2023-06-04T09:02:01;1.88;;;1.25;;
54241;SDS011;40156;51.080;17.082;2023-06-04T09:04:30;4.63;;;1.70;;
54241;SDS011;40156;51.080;17.082;2023-06-04T09:07:00;3.25;;;1.35;;
54241;SDS011;40156;51.080;17.082;2023-06-04T09:09:31;2.80;;;1.50;;
54241;SDS011;40156;51.080;17.082;2023-06-04T09:12:01;1.80;;;1.40;;
54241;SDS011;40156;51.080;17.082;2023-06-04T09:14:31;1.58;;;1.27;;
54241;SDS011;40156;51.080;17.082;2023-06-04T09:17:00;1.63;;;1.33;;
54241;SDS011;40156;51.080;17.082;2023-06-04T09:19:28;1.33;;;1.20;;
54241;SDS011;40156;51.080;17.082;2023-06-04T09:24:24;1.83;;;1.45;;
54241;SDS011;40156;51.080;17.082;2023-06-04T09:26:55;4.38;;;1.30;;
54241;SDS011;40156;51.080;17.082;2023-06-04T09:29:27;3.55;;;1.45;;
54241;SDS011;40156;51.080;17.082;2023-06-04T09:32:00;2.35;;;1.30;;
54241;SDS011;40156;51.080;17.082;2023-06-04T09:34:28;2.00;;;1.23;;
54241;SDS011;40156;51.080;17.082;2023-06-04T09:36:56;2.50;;;1.20;;
54241;SDS011;40156;51.080;17.082;2023-06-04T09:39:24;2.22;;;1.08;;
54241;SDS011;40156;51.080;17.082;2023-06-04T09:45:35;2.45;;;1.35;;
54241;SDS011;40156;51.080;17.082;2023-06-04T09:48:05;2.05;;;1.20;;
54241;SDS011;40156;51.080;17.082;2023-06-04T09:50:37;1.20;;;1.10;;
54241;SDS011;40156;51.080;17.082;2023-06-04T09:53:20;1.90;;;1.10;;
54241;SDS011;40156;51.080;17.082;2023-06-04T09:56:09;1.75;;;1.20;;
54241;SDS011;40156;51.080;17.082;2023-06-04T09:58:37;2.83;;;1.73;;
54241;SDS011;40156;51.080;17.082;2023-06-04T10:01:05;1.73;;;1.13;;
54241;SDS011;40156;51.080;17.082;2023-06-04T10:03:34;1.92;;;1.02;;
54241;SDS011;40156;51.080;17.082;2023-06-04T10:06:03;3.13;;;1.10;;
54241;SDS011;40156;51.080;17.082;2023-06-04T10:08:31;5.25;;;1.30;;
54241;SDS011;40156;51.080;17.082;2023-06-04T10:10:59;2.45;;;1.33;;
54241;SDS011;40156;51.080;17.082;2023-06-04T10:13:27;1.83;;;1.33;;
54241;SDS011;40156;51.080;17.082;2023-06-04T10:15:56;3.05;;;1.13;;
54241;SDS011;40156;51.080;17.082;2023-06-04T10:18:24;2.67;;;1.13;;
54241;SDS011;40156;51.080;17.082;2023-06-04T10:21:01;6.60;;;1.20;;
54241;SDS011;40156;51.080;17.082;2023-06-04T10:23:28;2.22;;;1.25;;
54241;SDS011;40156;51.080;17.082;2023-06-04T10:25:56;2.05;;;1.35;;
54241;SDS011;40156;51.080;17.082;2023-06-04T10:28:25;1.92;;;1.10;;
54241;SDS011;40156;51.080;17.082;2023-06-04T10:30:53;2.15;;;1.10;;
54241;SDS011;40156;51.080;17.082;2023-06-04T10:33:34;1.33;;;1.00;;
54241;SDS011;40156;51.080;17.082;2023-06-04T10:38:49;1.65;;;0.90;;
54241;SDS011;40156;51.080;17.082;2023-06-04T10:41:19;1.47;;;0.80;;
54241;SDS011;40156;51.080;17.082;2023-06-04T10:43:47;2.35;;;1.15;;
54241;SDS011;40156;51.080;17.082;2023-06-04T10:46:19;3.15;;;0.95;;
54241;SDS011;40156;51.080;17.082;2023-06-04T10:48:50;1.38;;;1.02;;
54241;SDS011;40156;51.080;17.082;2023-06-04T10:51:30;2.33;;;1.25;;
54241;SDS011;40156;51.080;17.082;2023-06-04T10:53:58;2.53;;;1.42;;
54241;SDS011;40156;51.080;17.082;2023-06-04T10:56:26;5.80;;;1.10;;
54241;SDS011;40156;51.080;17.082;2023-06-04T10:58:54;1.25;;;1.10;;
54241;SDS011;40156;51.080;17.082;2023-06-04T11:01:25;1.33;;;0.98;;
54241;SDS011;40156;51.080;17.082;2023-06-04T11:03:53;1.27;;;1.00;;
54241;SDS011;40156;51.080;17.082;2023-06-04T11:06:23;1.77;;;1.08;;
54241;SDS011;40156;51.080;17.082;2023-06-04T11:09:00;1.90;;;0.95;;
54241;SDS011;40156;51.080;17.082;2023-06-04T11:11:28;2.10;;;1.02;;
54241;SDS011;40156;51.080;17.082;2023-06-04T11:13:56;2.50;;;1.45;;
54241;SDS011;40156;51.080;17.082;2023-06-04T11:16:34;3.60;;;1.05;;
54241;SDS011;40156;51.080;17.082;2023-06-04T11:19:03;1.55;;;1.13;;
54241;SDS011;40156;51.080;17.082;2023-06-04T11:21:30;2.97;;;1.25;;
54241;SDS011;40156;51.080;17.082;2023-06-04T11:24:00;1.92;;;1.08;;
54241;SDS011;40156;51.080;17.082;2023-06-04T11:28:59;2.05;;;1.20;;
54241;SDS011;40156;51.080;17.082;2023-06-04T11:31:27;4.63;;;1.15;;
54241;SDS011;40156;51.080;17.082;2023-06-04T11:33:55;2.70;;;1.10;;
54241;SDS011;40156;51.080;17.082;2023-06-04T11:36:24;3.03;;;1.30;;
54241;SDS011;40156;51.080;17.082;2023-06-04T11:38:58;2.72;;;0.98;;
54241;SDS011;40156;51.080;17.082;2023-06-04T11:41:27;1.35;;;1.05;;
54241;SDS011;40156;51.080;17.082;2023-06-04T11:43:55;1.83;;;1.05;;
54241;SDS011;40156;51.080;17.082;2023-06-04T11:46:23;2.10;;;1.00;;
54241;SDS011;40156;51.080;17.082;2023-06-04T11:48:51;2.05;;;1.10;;
54241;SDS011;40156;51.080;17.082;2023-06-04T11:51:22;3.97;;;1.00;;
54241;SDS011;40156;51.080;17.082;2023-06-04T11:53:49;2.25;;;1.00;;
54241;SDS011;40156;51.080;17.082;2023-06-04T11:56:17;1.92;;;1.00;;
54241;SDS011;40156;51.080;17.082;2023-06-04T11:58:45;2.75;;;1.30;;
54241;SDS011;40156;51.080;17.082;2023-06-04T12:01:13;1.38;;;1.02;;
54241;SDS011;40156;51.080;17.082;2023-06-04T12:03:41;2.78;;;1.30;;
54241;SDS011;40156;51.080;17.082;2023-06-04T12:06:12;2.70;;;1.50;;
54241;SDS011;40156;51.080;17.082;2023-06-04T12:11:26;1.60;;;1.10;;
54241;SDS011;40156;51.080;17.082;2023-06-04T12:13:55;2.90;;;1.10;;
54241;SDS011;40156;51.080;17.082;2023-06-04T12:16:23;2.58;;;1.10;;
54241;SDS011;40156;51.080;17.082;2023-06-04T12:18:50;2.45;;;1.30;;
54241;SDS011;40156;51.080;17.082;2023-06-04T12:21:20;2.03;;;1.20;;
54241;SDS011;40156;51.080;17.082;2023-06-04T12:23:48;2.08;;;1.30;;
54241;SDS011;40156;51.080;17.082;2023-06-04T12:26:22;3.67;;;1.20;;
54241;SDS011;40156;51.080;17.082;2023-06-04T12:29:01;1.77;;;1.10;;
54241;SDS011;40156;51.080;17.082;2023-06-04T12:31:28;1.67;;;1.30;;
54241;SDS011;40156;51.080;17.082;2023-06-04T12:33:56;5.15;;;1.15;;
54241;SDS011;40156;51.080;17.082;2023-06-04T12:36:24;1.10;;;0.93;;
54241;SDS011;40156;51.080;17.082;2023-06-04T12:38:51;1.00;;;0.85;;
54241;SDS011;40156;51.080;17.082;2023-06-04T12:41:20;1.70;;;1.20;;
54241;SDS011;40156;51.080;17.082;2023-06-04T12:43:47;3.33;;;1.30;;
54241;SDS011;40156;51.080;17.082;2023-06-04T12:46:15;3.20;;;1.10;;
54241;SDS011;40156;51.080;17.082;2023-06-04T12:48:42;3.72;;;1.30;;
54241;SDS011;40156;51.080;17.082;2023-06-04T12:51:10;2.95;;;1.17;;
54241;SDS011;40156;51.080;17.082;2023-06-04T12:53:38;1.73;;;1.20;;
54241;SDS011;40156;51.080;17.082;2023-06-04T12:56:06;3.70;;;1.20;;
54241;SDS011;40156;51.080;17.082;2023-06-04T12:58:34;2.13;;;1.02;;
54241;SDS011;40156;51.080;17.082;2023-06-04T13:01:02;4.22;;;1.15;;
54241;SDS011;40156;51.080;17.082;2023-06-04T13:03:30;5.43;;;1.23;;
54241;SDS011;40156;51.080;17.082;2023-06-04T13:05:58;1.73;;;1.20;;
54241;SDS011;40156;51.080;17.082;2023-06-04T13:08:25;2.72;;;1.05;;
54241;SDS011;40156;51.080;17.082;2023-06-04T13:10:53;3.17;;;1.05;;
54241;SDS011;40156;51.080;17.082;2023-06-04T13:13:20;2.90;;;1.17;;
54241;SDS011;40156;51.080;17.082;2023-06-04T13:15:54;2.42;;;1.13;;
54241;SDS011;40156;51.080;17.082;2023-06-04T13:18:21;1.58;;;1.10;;
54241;SDS011;40156;51.080;17.082;2023-06-04T13:20:49;2.38;;;1.73;;
54241;SDS011;40156;51.080;17.082;2023-06-04T13:23:16;4.82;;;1.02;;
54241;SDS011;40156;51.080;17.082;2023-06-04T13:25:45;2.40;;;1.30;;
54241;SDS011;40156;51.080;17.082;2023-06-04T13:28:12;1.95;;;1.13;;
54241;SDS011;40156;51.080;17.082;2023-06-04T13:30:40;2.22;;;0.95;;
54241;SDS011;40156;51.080;17.082;2023-06-04T13:33:07;3.35;;;1.10;;
54241;SDS011;40156;51.080;17.082;2023-06-04T13:35:35;1.50;;;1.00;;
54241;SDS011;40156;51.080;17.082;2023-06-04T13:38:06;1.40;;;1.15;;
54241;SDS011;40156;51.080;17.082;2023-06-04T13:40:34;3.63;;;1.10;;
54241;SDS011;40156;51.080;17.082;2023-06-04T13:43:02;1.73;;;0.98;;
54241;SDS011;40156;51.080;17.082;2023-06-04T13:45:29;1.52;;;0.90;;
54241;SDS011;40156;51.080;17.082;2023-06-04T13:47:57;2.55;;;1.10;;
54241;SDS011;40156;51.080;17.082;2023-06-04T13:50:28;1.95;;;0.90;;
54241;SDS011;40156;51.080;17.082;2023-06-04T13:52:55;2.28;;;1.20;;
54241;SDS011;40156;51.080;17.082;2023-06-04T13:55:23;1.23;;;1.13;;
54241;SDS011;40156;51.080;17.082;2023-06-04T13:57:50;3.65;;;1.13;;
54241;SDS011;40156;51.080;17.082;2023-06-04T14:00:18;2.88;;;1.20;;
54241;SDS011;40156;51.080;17.082;2023-06-04T14:02:46;3.83;;;1.23;;
54241;SDS011;40156;51.080;17.082;2023-06-04T14:05:16;1.77;;;0.95;;
54241;SDS011;40156;51.080;17.082;2023-06-04T14:07:44;5.88;;;1.30;;
54241;SDS011;40156;51.080;17.082;2023-06-04T14:10:11;1.70;;;1.17;;
54241;SDS011;40156;51.080;17.082;2023-06-04T14:12:39;2.83;;;1.20;;
54241;SDS011;40156;51.080;17.082;2023-06-04T14:15:07;2.03;;;0.80;;
54241;SDS011;40156;51.080;17.082;2023-06-04T14:17:37;1.58;;;0.93;;
54241;SDS011;40156;51.080;17.082;2023-06-04T14:20:08;1.92;;;1.30;;
54241;SDS011;40156;51.080;17.082;2023-06-04T14:22:38;1.33;;;0.82;;
54241;SDS011;40156;51.080;17.082;2023-06-04T14:25:06;4.03;;;1.90;;
54241;SDS011;40156;51.080;17.082;2023-06-04T14:27:36;2.90;;;1.20;;
54241;SDS011;40156;51.080;17.082;2023-06-04T14:30:04;2.05;;;0.93;;
54241;SDS011;40156;51.080;17.082;2023-06-04T14:32:32;2.97;;;1.30;;
54241;SDS011;40156;51.080;17.082;2023-06-04T14:35:00;3.30;;;1.25;;
54241;SDS011;40156;51.080;17.082;2023-06-04T14:37:27;1.42;;;1.02;;
54241;SDS011;40156;51.080;17.082;2023-06-04T14:39:55;3.20;;;1.10;;
54241;SDS011;40156;51.080;17.082;2023-06-04T14:42:22;2.90;;;1.17;;
54241;SDS011;40156;51.080;17.082;2023-06-04T14:44:50;1.40;;;1.00;;
54241;SDS011;40156;51.080;17.082;2023-06-04T14:47:18;2.90;;;0.95;;
54241;SDS011;40156;51.080;17.082;2023-06-04T14:49:45;1.83;;;1.10;;
54241;SDS011;40156;51.080;17.082;2023-06-04T14:52:13;1.85;;;1.38;;
54241;SDS011;40156;51.080;17.082;2023-06-04T14:54:40;1.80;;;1.00;;
54241;SDS011;40156;51.080;17.082;2023-06-04T14:57:10;1.30;;;0.90;;
54241;SDS011;40156;51.080;17.082;2023-06-04T14:59:37;1.75;;;1.08;;
54241;SDS011;40156;51.080;17.082;2023-06-04T15:02:05;3.00;;;1.15;;
54241;SDS011;40156;51.080;17.082;2023-06-04T15:04:33;2.13;;;1.00;;
54241;SDS011;40156;51.080;17.082;2023-06-04T15:07:00;2.15;;;1.02;;
54241;SDS011;40156;51.080;17.082;2023-06-04T15:09:28;3.17;;;1.05;;
54241;SDS011;40156;51.080;17.082;2023-06-04T15:11:56;1.90;;;1.30;;